Time;durP1;ratioP1;P1;durP2;ratioP2;P2;SDS_P1;SDS_P2;PMS_P1;PMS_P2;Temp;Humidity;BMP_temperature;BMP_pressure;BME280_temperature;BME280_humidity;BME280_pressure;Samples;Min_cycle;Max_cycle;Signal;HPM_P1;HPM_P2
2022/05/13 00:00:09;;;;;;;;;;;19.50;77.20;19.70;99958.00;;;;344746;28;82499;-88
2022/05/13 00:00:22;;;;;;;;;;;19.50;77.10;19.60;99961.00;;;;344320;28;89382;-88
2022/05/13 00:00:34;;;;;;;;;;;19.50;77.20;19.70;99963.00;;;;344844;28;83048;-88
2022/05/13 00:00:46;;;;;;;;;;;19.50;77.30;19.60;99959.00;;;;345838;28;92225;-89
2022/05/13 00:00:58;;;;;;;;;;;19.50;77.30;19.60;99965.00;;;;346227;28;83445;-88
2022/05/13 00:01:10;;;;;;;;;;;19.50;77.30;19.50;99955.00;;;;344155;28;90660;-88
2022/05/13 00:01:22;;;;;;;;;;;19.50;77.30;19.50;99959.00;;;;347463;28;83376;-89
2022/05/13 00:01:34;;;;;;;;;;;19.40;77.30;19.50;99964.00;;;;348301;27;90596;-89
2022/05/13 00:01:46;;;;;;;;;;;19.40;77.40;19.50;99960.00;;;;348828;27;83578;-88
2022/05/13 00:01:57;;;;;;;;;;;19.40;77.40;19.60;99963.00;;;;348424;27;88134;-88
2022/05/13 00:02:10;;;;;;;;;;;19.40;77.40;19.60;99961.00;;;;348879;27;83283;-88
2022/05/13 00:02:22;;;;;;;;;;;19.40;77.30;19.60;99956.00;;;;347088;28;92224;-88
2022/05/13 00:02:34;;;;;;;;;;;19.40;77.40;19.50;99960.00;;;;346105;28;82532;-88
2022/05/13 00:02:46;;;;;;;;;;;19.40;77.30;19.60;99955.00;;;;347011;28;91781;-89
2022/05/13 00:02:58;;;;;;;;;;;19.40;77.20;19.60;99954.00;;;;348524;27;84192;-88
2022/05/13 00:03:10;;;;;;;;;;;19.40;77.10;19.60;99958.00;;;;344133;28;90477;-88
2022/05/13 00:03:22;;;;;;;;;;;19.40;77.30;19.50;99958.00;;;;344773;28;83361;-88
2022/05/13 00:03:34;;;;;;;;;;;19.40;77.30;19.50;99956.00;;;;345746;28;90417;-88
2022/05/13 00:03:45;;;;;;;;;;;19.40;77.50;19.50;99959.00;;;;343419;28;82625;-88
2022/05/13 00:03:58;;;;;;;;;;;19.40;77.40;19.50;99953.00;;;;345599;28;93141;-88
2022/05/13 00:04:10;;;;;;;;;;;19.40;77.50;19.50;99951.00;;;;346080;28;82501;-88
2022/05/13 00:04:22;;;;;;;;;;;19.40;78.10;19.60;99950.00;;;;346972;28;91713;-89
2022/05/13 00:04:34;;;;;;;;;;;19.40;77.30;19.50;99957.00;;;;347533;28;82558;-88
2022/05/13 00:04:46;;;;;;;;;;;19.40;77.50;19.60;99955.00;;;;347067;28;91298;-89
2022/05/13 00:04:57;;;;;;;;;;;19.40;77.50;19.40;99944.00;;;;347483;28;82446;-88
2022/05/13 00:05:09;;;;;;;;;;;19.40;77.60;19.50;99940.00;;;;345632;28;90352;-88
2022/05/13 00:05:22;;;;;;;;;;;19.40;77.70;19.50;99950.00;;;;344664;28;83371;-88
2022/05/13 00:05:34;;;;;;;;;;;19.40;77.80;19.50;99947.00;;;;344339;28;91052;-88
2022/05/13 00:05:45;;;;;;;;;;;19.40;77.70;19.60;99952.00;;;;346095;28;83339;-88
2022/05/13 00:05:57;;;;;;;;;;;19.40;77.50;19.50;99945.00;;;;345521;28;91635;-89
2022/05/13 00:06:09;;;;;;;;;;;19.40;77.70;19.50;99948.00;;;;347512;28;83313;-88
2022/05/13 00:06:21;;;;;;;;;;;19.40;77.80;19.40;99944.00;;;;346680;28;91609;-88
2022/05/13 00:06:33;;;;;;;;;;;19.40;78.00;19.40;99944.00;;;;344609;28;83476;-88
2022/05/13 00:06:44;;;;;;;;;;;19.40;77.80;19.50;99943.00;;;;347064;28;91823;-89
2022/05/13 00:06:56;;;;;;;;;;;19.30;77.50;19.50;99947.00;;;;346089;28;82525;-89
2022/05/13 00:07:08;;;;;;;;;;;19.40;77.80;19.50;99945.00;;;;345548;28;89201;-89
2022/05/13 00:07:20;;;;;;;;;;;19.40;77.80;19.60;99948.00;;;;347422;28;83341;-88
2022/05/13 00:07:32;;;;;;;;;;;19.30;77.70;19.50;99946.00;;;;347060;28;91354;-88
2022/05/13 00:07:43;;;;;;;;;;;19.40;77.90;19.50;99944.00;;;;348829;27;82333;-87
2022/05/13 00:07:55;;;;;;;;;;;19.30;77.80;19.50;99945.00;;;;347176;28;90491;-88
2022/05/13 00:08:07;;;;;;;;;;;19.40;77.90;19.50;99947.00;;;;348796;27;83428;-87
2022/05/13 00:08:19;;;;;;;;;;;19.40;77.90;19.50;99942.00;;;;346990;28;91356;-88
2022/05/13 00:08:31;;;;;;;;;;;19.30;77.70;19.40;99947.00;;;;346090;28;82392;-88
2022/05/13 00:08:43;;;;;;;;;;;19.40;77.80;19.40;99941.00;;;;349862;27;89619;-88
2022/05/13 00:08:55;;;;;;;;;;;19.30;77.80;19.40;99950.00;;;;347471;28;83141;-88
2022/05/13 00:09:07;;;;;;;;;;;19.30;77.90;19.40;99942.00;;;;345234;28;91641;-88
2022/05/13 00:09:18;;;;;;;;;;;19.30;77.70;19.50;99942.00;;;;347162;28;82608;-88
2022/05/13 00:10:05;;;;;;;;;;;19.30;78.20;19.40;99952.00;;;;347512;28;83130;-88
2022/05/13 00:10:17;;;;;;;;;;;19.30;77.90;19.50;99947.00;;;;348164;27;91231;-89
2022/05/13 00:10:29;;;;;;;;;;;19.30;77.90;19.50;99945.00;;;;346110;28;83159;-89
2022/05/13 00:10:42;;;;;;;;;;;19.30;77.90;19.40;99946.00;;;;344292;28;91235;-88
2022/05/13 00:10:54;;;;;;;;;;;19.30;78.00;19.40;99952.00;;;;344736;28;83482;-88
2022/05/13 00:11:06;;;;;;;;;;;19.30;77.90;19.50;99947.00;;;;346940;28;92272;-89
2022/05/13 00:11:18;;;;;;;;;;;19.30;77.90;19.50;99948.00;;;;345951;28;83400;-88
2022/05/13 00:11:29;;;;;;;;;;;19.30;77.90;19.50;99947.00;;;;346995;28;92237;-88
2022/05/13 00:11:41;;;;;;;;;;;19.30;78.00;19.40;99942.00;;;;347433;28;84037;-89
2022/05/13 00:11:53;;;;;;;;;;;19.30;78.00;19.40;99944.00;;;;348472;27;88998;-88
2022/05/13 00:12:05;;;;;;;;;;;19.30;78.00;19.40;99950.00;;;;347367;27;83586;-88
2022/05/13 00:12:17;;;;;;;;;;;19.30;77.90;19.50;99946.00;;;;345620;28;88972;-88
2022/05/13 00:12:31;;;;;;;;;;;19.30;78.00;19.40;99955.00;;;;347620;28;83245;-88
2022/05/13 00:12:43;;;;;;;;;;;19.30;78.20;19.40;99943.00;;;;347066;28;90377;-88
2022/05/13 00:12:54;;;;;;;;;;;19.30;78.30;19.40;99941.00;;;;347467;28;83288;-88
2022/05/13 00:13:06;;;;;;;;;;;19.30;78.20;19.40;99950.00;;;;346886;28;92244;-88
2022/05/13 00:13:18;;;;;;;;;;;19.30;78.10;19.40;99957.00;;;;346008;28;82938;-88
2022/05/13 00:13:30;;;;;;;;;;;19.30;78.10;19.30;99957.00;;;;347055;28;91189;-88
2022/05/13 00:13:42;;;;;;;;;;;19.30;78.20;19.30;99955.00;;;;344812;28;83392;-88
2022/05/13 00:13:53;;;;;;;;;;;19.20;78.30;19.30;99944.00;;;;345684;28;92342;-88
2022/05/13 00:14:06;;;;;;;;;;;19.20;78.10;19.40;99949.00;;;;347363;28;83305;-88
2022/05/13 00:14:17;;;;;;;;;;;19.20;77.90;19.40;99945.00;;;;347039;28;88837;-88
2022/05/13 00:14:29;;;;;;;;;;;19.30;78.10;19.50;99951.00;;;;346060;28;83433;-88
2022/05/13 00:14:41;;;;;;;;;;;19.30;78.10;19.40;99942.00;;;;347091;28;90323;-87
2022/05/13 00:14:53;;;;;;;;;;;19.30;78.30;19.50;99955.00;;;;344727;28;83492;-88
2022/05/13 00:15:07;;;;;;;;;;;19.30;78.20;19.30;99954.00;;;;348722;27;91334;-87
2022/05/13 00:15:21;;;;;;;;;;;19.30;78.40;19.30;99943.00;;;;345842;28;83378;-87
2022/05/13 00:15:34;;;;;;;;;;;19.30;78.30;19.40;99954.00;;;;346316;28;88787;-88
2022/05/13 00:15:46;;;;;;;;;;;19.20;78.20;19.40;99952.00;;;;348899;27;83401;-88
2022/05/13 00:15:59;;;;;;;;;;;19.20;78.40;19.40;99941.00;;;;345569;28;91813;-88
2022/05/13 00:16:12;;;;;;;;;;;19.20;78.40;19.30;99946.00;;;;344619;28;83631;-88
2022/05/13 00:16:24;;;;;;;;;;;19.20;78.30;19.20;99950.00;;;;344245;28;89113;-88
2022/05/13 00:16:36;;;;;;;;;;;19.20;78.20;19.20;99949.00;;;;346152;28;83414;-89
2022/05/13 00:16:48;;;;;;;;;;;19.20;78.20;19.30;99953.00;;;;345723;28;91359;-88
2022/05/13 00:17:00;;;;;;;;;;;19.20;78.20;19.30;99948.00;;;;348885;27;82442;-88
2022/05/13 00:17:12;;;;;;;;;;;19.20;78.20;19.30;99943.00;;;;345610;28;92073;-88
2022/05/13 00:17:24;;;;;;;;;;;19.20;78.40;19.40;99947.00;;;;347547;28;83212;-88
2022/05/13 00:17:36;;;;;;;;;;;19.20;78.30;19.30;99952.00;;;;348444;27;91825;-87
2022/05/13 00:17:47;;;;;;;;;;;19.20;78.50;19.20;99949.00;;;;344727;28;83341;-88
2022/05/13 00:18:00;;;;;;;;;;;19.20;78.60;19.20;99959.00;;;;345515;28;91977;-87
2022/05/13 00:18:12;;;;;;;;;;;19.20;78.40;19.20;99946.00;;;;344727;28;83471;-89
2022/05/13 00:18:24;;;;;;;;;;;19.10;78.30;19.30;99952.00;;;;346503;28;91780;-88
2022/05/13 00:18:36;;;;;;;;;;;19.10;78.20;19.30;99947.00;;;;344646;28;83193;-88
2022/05/13 00:18:48;;;;;;;;;;;19.20;78.20;19.20;99943.00;;;;344293;28;91377;-88
2022/05/13 00:19:00;;;;;;;;;;;19.10;78.20;19.20;99939.00;;;;346119;28;83431;-88
2022/05/13 00:19:12;;;;;;;;;;;19.10;78.20;19.20;99947.00;;;;344306;28;90037;-88
2022/05/13 00:19:24;;;;;;;;;;;19.10;78.30;19.20;99953.00;;;;344781;28;83324;-88
2022/05/13 00:19:37;;;;;;;;;;;19.20;78.40;19.20;99945.00;;;;345580;28;91924;-89
2022/05/13 00:19:48;;;;;;;;;;;19.10;78.30;19.20;99947.00;;;;346005;28;83409;-88
2022/05/13 00:20:02;;;;;;;;;;;19.10;78.40;19.30;99950.00;;;;344321;28;91272;-88
2022/05/13 00:20:14;;;;;;;;;;;19.10;78.30;19.30;99940.00;;;;344325;28;83525;-88
2022/05/13 00:20:27;;;;;;;;;;;19.20;78.20;19.30;99948.00;;;;344349;28;88004;-88
2022/05/13 00:20:39;;;;;;;;;;;19.10;78.30;19.30;99948.00;;;;346071;28;83145;-88
2022/05/13 00:20:51;;;;;;;;;;;19.10;78.40;19.20;99946.00;;;;344237;28;91381;-88
2022/05/13 00:21:03;;;;;;;;;;;19.10;78.50;19.20;99947.00;;;;346637;28;83537;-88
2022/05/13 00:21:15;;;;;;;;;;;19.10;78.50;19.20;99952.00;;;;342884;28;92257;-88
2022/05/13 00:21:27;;;;;;;;;;;19.10;78.60;19.20;99944.00;;;;344754;28;83128;-88
2022/05/13 00:21:38;;;;;;;;;;;19.10;78.70;19.30;99943.00;;;;342882;28;91283;-88
2022/05/13 00:21:50;;;;;;;;;;;19.10;78.50;19.20;99943.00;;;;347378;28;83320;-88
2022/05/13 00:22:02;;;;;;;;;;;19.10;78.70;19.20;99944.00;;;;348388;27;91672;-88
2022/05/13 00:22:14;;;;;;;;;;;19.10;78.80;19.10;99946.00;;;;344765;28;83300;-88
2022/05/13 00:22:29;;;;;;;;;;;19.10;78.90;19.10;99944.00;;;;347060;28;92158;-88
2022/05/13 00:22:55;;;;;;;;;;;19.10;78.70;19.10;99943.00;;;;348929;27;82388;-88
2022/05/13 00:23:06;;;;;;;;;;;19.10;78.70;19.20;99948.00;;;;345632;28;91920;-88
2022/05/13 00:23:18;;;;;;;;;;;19.10;78.60;19.20;99947.00;;;;346073;28;83494;-88
2022/05/13 00:23:30;;;;;;;;;;;19.10;78.60;19.20;99945.00;;;;345541;28;92894;-88
2022/05/13 00:23:42;;;;;;;;;;;19.10;78.70;19.20;99946.00;;;;346091;28;83321;-88
2022/05/13 00:23:53;;;;;;;;;;;19.10;78.80;19.20;99946.00;;;;345699;28;88691;-88
2022/05/13 00:24:06;;;;;;;;;;;19.10;78.70;19.10;99951.00;;;;347663;27;82686;-88
2022/05/13 00:24:18;;;;;;;;;;;19.10;78.80;19.10;99946.00;;;;344099;28;92400;-88
2022/05/13 00:24:29;;;;;;;;;;;19.10;78.90;19.20;99947.00;;;;347411;28;83389;-88
2022/05/13 00:24:41;;;;;;;;;;;19.10;78.90;19.20;99943.00;;;;345653;28;91339;-89
2022/05/13 00:24:54;;;;;;;;;;;19.10;78.80;19.20;99940.00;;;;347311;28;83214;-88
2022/05/13 00:25:06;;;;;;;;;;;19.10;78.90;19.20;99942.00;;;;346984;28;91464;-88
2022/05/13 00:25:20;;;;;;;;;;;19.10;78.90;19.10;99939.00;;;;347429;28;83523;-88
2022/05/13 00:25:33;;;;;;;;;;;19.10;78.90;19.10;99939.00;;;;346951;28;92367;-89
2022/05/13 00:25:45;;;;;;;;;;;19.00;78.80;19.10;99946.00;;;;345984;28;83466;-88
2022/05/13 00:25:57;;;;;;;;;;;19.00;79.00;19.10;99948.00;;;;344287;28;90370;-88
2022/05/13 00:26:09;;;;;;;;;;;19.10;79.10;19.10;99939.00;;;;344711;28;83306;-89
2022/05/13 00:26:20;;;;;;;;;;;19.00;79.10;19.10;99947.00;;;;344162;28;91565;-88
2022/05/13 00:26:32;;;;;;;;;;;19.00;79.00;19.20;99953.00;;;;346003;28;82489;-88
2022/05/13 00:26:44;;;;;;;;;;;19.00;78.90;19.20;99947.00;;;;344261;28;91831;-87
2022/05/13 00:26:56;;;;;;;;;;;19.00;79.00;19.20;99948.00;;;;343296;28;83236;-88
2022/05/13 00:27:07;;;;;;;;;;;19.00;79.00;19.10;99946.00;;;;346014;28;89075;-88
2022/05/13 00:27:19;;;;;;;;;;;19.00;79.20;19.10;99944.00;;;;348608;27;83635;-88
2022/05/13 00:27:31;;;;;;;;;;;19.00;79.40;19.10;99943.00;;;;348234;27;91635;-88
2022/05/13 00:27:43;;;;;;;;;;;19.00;79.40;19.10;99941.00;;;;348853;27;82599;-88
2022/05/13 00:27:58;;;;;;;;;;;19.00;79.30;19.20;99940.00;;;;345694;28;89716;-88
2022/05/13 00:28:10;;;;;;;;;;;19.00;79.10;19.20;99934.00;;;;346093;28;82580;-88
2022/05/13 00:28:22;;;;;;;;;;;19.00;79.10;19.20;99947.00;;;;345623;28;88817;-89
2022/05/13 00:28:34;;;;;;;;;;;19.00;79.10;19.20;99948.00;;;;344723;28;82517;-87
2022/05/13 00:28:45;;;;;;;;;;;19.00;79.20;19.20;99941.00;;;;347042;28;91346;-89
2022/05/13 00:28:57;;;;;;;;;;;19.00;79.10;19.20;99943.00;;;;345991;28;83199;-88
2022/05/13 00:29:09;;;;;;;;;;;19.00;79.00;19.20;99942.00;;;;347038;28;91884;-88
2022/05/13 00:29:21;;;;;;;;;;;19.00;79.00;19.20;99941.00;;;;348930;27;83418;-88
2022/05/13 00:29:33;;;;;;;;;;;19.00;79.00;19.30;99947.00;;;;344250;28;89631;-89
2022/05/13 00:29:45;;;;;;;;;;;19.00;79.00;19.30;99938.00;;;;344479;28;83297;-88
2022/05/13 00:29:58;;;;;;;;;;;19.00;79.00;19.30;99940.00;;;;344229;28;90321;-89
2022/05/13 00:30:10;;;;;;;;;;;19.00;78.90;19.10;99944.00;;;;348870;27;83274;-88
2022/05/13 00:30:23;;;;;;;;;;;19.00;79.20;19.10;99951.00;;;;344157;28;89464;-88
2022/05/13 00:30:38;;;;;;;;;;;19.00;79.10;19.10;99948.00;;;;344644;28;83429;-88
2022/05/13 00:30:51;;;;;;;;;;;19.00;79.00;19.00;99950.00;;;;345619;28;91179;-88
2022/05/13 00:31:04;;;;;;;;;;;19.00;79.10;19.10;99944.00;;;;347357;28;83592;-88
2022/05/13 00:31:16;;;;;;;;;;;19.00;79.10;19.10;99946.00;;;;345727;28;90783;-88
2022/05/13 00:31:28;;;;;;;;;;;19.00;79.10;19.10;99944.00;;;;345959;28;82811;-88
2022/05/13 00:31:42;;;;;;;;;;;19.00;79.20;19.00;99947.00;;;;345522;28;91072;-88
2022/05/13 00:31:53;;;;;;;;;;;19.00;79.30;19.10;99942.00;;;;347479;28;83308;-87
2022/05/13 00:32:06;;;;;;;;;;;19.00;79.20;19.00;99940.00;;;;347065;28;91460;-88
2022/05/13 00:32:18;;;;;;;;;;;18.90;79.10;19.10;99953.00;;;;345956;28;83266;-88
2022/05/13 00:32:29;;;;;;;;;;;19.00;79.20;19.10;99946.00;;;;342942;28;88761;-88
2022/05/13 00:32:41;;;;;;;;;;;19.00;79.10;19.10;99947.00;;;;346088;28;83251;-88
2022/05/13 00:32:53;;;;;;;;;;;19.00;79.20;19.00;99950.00;;;;346997;28;88583;-88
2022/05/13 00:33:05;;;;;;;;;;;19.00;79.50;19.10;99948.00;;;;346464;28;83673;-87
2022/05/13 00:33:17;;;;;;;;;;;18.90;79.40;19.10;99939.00;;;;347494;27;88890;-88
2022/05/13 00:33:29;;;;;;;;;;;19.00;79.40;19.10;99951.00;;;;346088;28;83349;-88
2022/05/13 00:33:41;;;;;;;;;;;18.90;79.20;19.00;99944.00;;;;346840;28;93246;-88
2022/05/13 00:33:53;;;;;;;;;;;19.00;79.30;19.10;99941.00;;;;348883;27;82444;-88
2022/05/13 00:34:05;;;;;;;;;;;18.90;79.20;19.10;99949.00;;;;347110;28;88929;-87
2022/05/13 00:34:18;;;;;;;;;;;19.00;79.40;19.10;99953.00;;;;346095;28;83243;-88
2022/05/13 00:34:31;;;;;;;;;;;19.00;79.30;19.00;99950.00;;;;344402;28;91559;-88
2022/05/13 00:34:43;;;;;;;;;;;18.90;79.30;19.00;99946.00;;;;346084;28;83387;-89
2022/05/13 00:34:54;;;;;;;;;;;18.90;79.40;19.00;99945.00;;;;345612;28;90994;-89
2022/05/13 00:35:07;;;;;;;;;;;18.90;79.40;19.10;99942.00;;;;344720;28;82399;-89
2022/05/13 00:35:19;;;;;;;;;;;18.90;79.30;19.00;99941.00;;;;345677;28;91343;-88
2022/05/13 00:35:32;;;;;;;;;;;18.90;79.50;19.00;99944.00;;;;347447;28;83357;-88
2022/05/13 00:35:44;;;;;;;;;;;18.90;79.50;19.00;99947.00;;;;346951;28;90120;-88
2022/05/13 00:35:57;;;;;;;;;;;18.90;79.60;19.00;99935.00;;;;347571;28;83193;-88
2022/05/13 00:36:08;;;;;;;;;;;18.90;79.50;19.00;99950.00;;;;345704;28;90195;-88
2022/05/13 00:36:20;;;;;;;;;;;18.90;79.40;19.00;99950.00;;;;344613;28;83449;-88
2022/05/13 00:36:32;;;;;;;;;;;18.90;79.40;18.90;99941.00;;;;346018;28;91192;-86
2022/05/13 00:36:44;;;;;;;;;;;18.90;79.60;19.00;99949.00;;;;348635;27;84067;-88
2022/05/13 00:36:55;;;;;;;;;;;18.90;79.70;18.90;99939.00;;;;345628;28;91242;-88
2022/05/13 00:37:07;;;;;;;;;;;18.90;79.50;18.90;99944.00;;;;347512;27;83436;-88
2022/05/13 00:37:19;;;;;;;;;;;18.90;79.60;19.00;99951.00;;;;346973;28;90990;-88
2022/05/13 00:37:36;;;;;;;;;;;18.90;79.50;18.90;99944.00;;;;344593;28;83817;-87
2022/05/13 00:37:48;;;;;;;;;;;18.90;79.50;18.90;99947.00;;;;346838;28;92572;-88
2022/05/13 00:38:00;;;;;;;;;;;18.80;79.50;18.90;99940.00;;;;347476;28;83360;-88
2022/05/13 00:38:11;;;;;;;;;;;18.80;79.70;18.90;99938.00;;;;348190;27;91570;-88
2022/05/13 00:38:23;;;;;;;;;;;18.80;79.70;19.00;99942.00;;;;348763;27;83468;-88
2022/05/13 00:38:35;;;;;;;;;;;18.80;79.50;18.90;99943.00;;;;347069;28;89363;-88
2022/05/13 00:38:47;;;;;;;;;;;18.80;79.70;18.90;99943.00;;;;348838;27;83310;-88
2022/05/13 00:39:00;;;;;;;;;;;18.80;80.00;18.90;99947.00;;;;348980;27;91424;-88
2022/05/13 00:39:12;;;;;;;;;;;18.80;80.00;18.90;99946.00;;;;346127;28;83292;-88
2022/05/13 00:39:24;;;;;;;;;;;18.80;79.80;18.90;99944.00;;;;346796;28;91889;-88
2022/05/13 00:39:35;;;;;;;;;;;18.80;79.70;19.00;99946.00;;;;347267;28;82560;-88
2022/05/13 00:39:47;;;;;;;;;;;18.80;79.70;18.90;99941.00;;;;345462;28;92772;-88
2022/05/13 00:39:59;;;;;;;;;;;18.80;79.80;19.00;99944.00;;;;344718;28;83281;-88
2022/05/13 00:40:11;;;;;;;;;;;18.80;79.90;19.00;99954.00;;;;345623;28;91539;-88
2022/05/13 00:40:24;;;;;;;;;;;18.80;79.90;19.00;99944.00;;;;346031;28;83540;-88
2022/05/13 00:40:36;;;;;;;;;;;18.90;80.00;18.90;99944.00;;;;345642;28;90035;-88
2022/05/13 00:40:48;;;;;;;;;;;18.80;80.00;18.80;99944.00;;;;345969;28;83443;-88
2022/05/13 00:41:00;;;;;;;;;;;18.80;79.90;18.90;99947.00;;;;348344;27;88973;-89
2022/05/13 00:41:12;;;;;;;;;;;18.80;79.80;18.90;99944.00;;;;346166;28;83277;-88
2022/05/13 00:41:24;;;;;;;;;;;18.80;79.80;18.90;99942.00;;;;347075;28;89895;-88
2022/05/13 00:41:36;;;;;;;;;;;18.80;79.80;18.90;99944.00;;;;346006;28;82272;-88
2022/05/13 00:41:48;;;;;;;;;;;18.80;79.90;18.90;99946.00;;;;345574;28;91503;-88
2022/05/13 00:42:07;;;;;;;;;;;18.80;79.80;19.00;99943.00;;;;345907;28;83421;-89
2022/05/13 00:42:22;;;;;;;;;;;18.80;79.80;18.90;99938.00;;;;344089;28;92321;-88
2022/05/13 00:42:34;;;;;;;;;;;18.80;79.70;19.00;99942.00;;;;344679;28;83395;-88
2022/05/13 00:42:46;;;;;;;;;;;18.80;79.90;18.90;99936.00;;;;342827;28;91873;-88
2022/05/13 00:43:04;;;;;;;;;;;18.80;80.10;18.90;99938.00;;;;347124;28;82576;-88
2022/05/13 00:43:37;;;;;;;;;;;18.80;80.00;19.00;99946.00;;;;344140;28;91674;-88
2022/05/13 00:43:52;;;;;;;;;;;18.80;80.10;18.90;99928.00;;;;343247;28;83526;-88
2022/05/13 00:44:04;;;;;;;;;;;18.80;80.20;18.90;99931.00;;;;347060;28;89230;-88
2022/05/13 00:44:15;;;;;;;;;;;18.80;80.10;18.80;99936.00;;;;344676;28;82464;-88
2022/05/13 00:44:27;;;;;;;;;;;18.80;80.40;18.80;99931.00;;;;345568;28;91026;-89
2022/05/13 00:44:39;;;;;;;;;;;18.70;80.20;18.80;99929.00;;;;346089;28;83195;-89
2022/05/13 00:44:51;;;;;;;;;;;18.70;80.20;18.80;99937.00;;;;344325;28;90251;-87
2022/05/13 00:45:03;;;;;;;;;;;18.70;80.80;18.80;99926.00;;;;346526;28;83525;-88
2022/05/13 00:45:15;;;;;;;;;;;18.80;80.20;18.80;99937.00;;;;344312;28;90622;-87
2022/05/13 00:45:27;;;;;;;;;;;18.70;80.10;18.90;99936.00;;;;346136;28;82412;-88
2022/05/13 00:45:39;;;;;;;;;;;18.70;80.10;18.90;99942.00;;;;344224;28;90457;-88
2022/05/13 00:45:50;;;;;;;;;;;18.70;80.30;18.90;99934.00;;;;345992;28;83298;-88
2022/05/13 00:46:03;;;;;;;;;;;18.70;80.20;18.90;99935.00;;;;345632;28;91914;-88
2022/05/13 00:46:19;;;;;;;;;;;18.70;80.20;18.90;99945.00;;;;345925;28;82456;-88
2022/05/13 00:46:31;;;;;;;;;;;18.70;80.20;18.80;99942.00;;;;345599;28;90286;-88
2022/05/13 00:46:43;;;;;;;;;;;18.80;80.40;18.90;99932.00;;;;343287;28;83374;-88
2022/05/13 00:46:55;;;;;;;;;;;18.70;80.80;18.90;99939.00;;;;345530;28;89165;-88
2022/05/13 00:47:07;;;;;;;;;;;18.70;80.60;18.90;99939.00;;;;344602;28;83245;-88
2022/05/13 00:47:19;;;;;;;;;;;18.70;80.60;18.90;99942.00;;;;344191;28;90488;-88
2022/05/13 00:47:30;;;;;;;;;;;18.70;80.60;18.90;99935.00;;;;344647;28;82378;-88
2022/05/13 00:47:43;;;;;;;;;;;18.70;80.60;18.90;99933.00;;;;345461;28;92125;-88
2022/05/13 00:47:54;;;;;;;;;;;18.70;81.20;18.90;99934.00;;;;346047;28;83323;-88
2022/05/13 00:48:07;;;;;;;;;;;18.70;80.60;18.90;99937.00;;;;346509;28;90258;-88
2022/05/13 00:48:19;;;;;;;;;;;18.70;80.50;18.90;99937.00;;;;346023;28;83390;-88
2022/05/13 00:48:30;;;;;;;;;;;18.70;80.40;19.00;99946.00;;;;346924;28;91321;-88
2022/05/13 00:48:43;;;;;;;;;;;18.70;80.20;19.00;99936.00;;;;347410;28;83326;-88
2022/05/13 00:48:55;;;;;;;;;;;18.70;80.30;18.90;99938.00;;;;345566;28;89082;-88
2022/05/13 00:49:09;;;;;;;;;;;18.70;80.40;18.80;99941.00;;;;346017;28;83362;-88
2022/05/13 00:49:22;;;;;;;;;;;18.70;80.50;18.80;99932.00;;;;344209;28;91285;-88
2022/05/13 00:49:33;;;;;;;;;;;18.70;80.40;18.70;99938.00;;;;344755;28;83277;-88
2022/05/13 00:49:45;;;;;;;;;;;18.70;80.60;18.80;99938.00;;;;345607;28;91375;-88
2022/05/13 00:49:59;;;;;;;;;;;18.70;80.50;18.80;99941.00;;;;346036;28;83372;-88
2022/05/13 00:50:12;;;;;;;;;;;18.70;80.50;18.80;99936.00;;;;345669;28;91744;-88
2022/05/13 00:50:25;;;;;;;;;;;18.70;80.60;18.80;99943.00;;;;346033;28;83496;-89
2022/05/13 00:50:37;;;;;;;;;;;18.70;80.80;18.70;99936.00;;;;345475;28;93084;-87
2022/05/13 00:50:55;;;;;;;;;;;18.70;80.90;18.70;99946.00;;;;347333;28;83392;-88
2022/05/13 00:51:07;;;;;;;;;;;18.70;80.90;18.80;99935.00;;;;345361;28;90324;-88
2022/05/13 00:51:33;;;;;;;;;;;18.60;80.80;18.80;99940.00;;;;346082;28;83298;-88
2022/05/13 00:51:46;;;;;;;;;;;18.70;80.90;18.70;99942.00;;;;348112;27;91600;-88
2022/05/13 00:51:58;;;;;;;;;;;18.70;80.90;18.70;99938.00;;;;348933;27;83347;-88
2022/05/13 00:52:10;;;;;;;;;;;18.60;80.90;18.70;99942.00;;;;346922;28;90029;-88
2022/05/13 00:52:22;;;;;;;;;;;18.60;80.90;18.70;99944.00;;;;348773;27;82646;-88
2022/05/13 00:52:34;;;;;;;;;;;18.60;80.70;18.80;99942.00;;;;348414;27;91528;-88
2022/05/13 00:52:48;;;;;;;;;;;18.60;80.80;18.80;99935.00;;;;347418;28;83319;-88
2022/05/13 00:53:00;;;;;;;;;;;18.60;80.80;18.80;99935.00;;;;344104;28;91366;-87
2022/05/13 00:53:12;;;;;;;;;;;18.70;80.90;18.90;99941.00;;;;346067;28;82506;-88
2022/05/13 00:53:24;;;;;;;;;;;18.60;80.70;18.80;99936.00;;;;345639;28;91396;-88
2022/05/13 00:53:36;;;;;;;;;;;18.70;80.80;18.80;99932.00;;;;345993;28;83189;-88
2022/05/13 00:53:48;;;;;;;;;;;18.70;81.10;18.70;99940.00;;;;345659;28;91172;-88
2022/05/13 00:54:00;;;;;;;;;;;18.60;81.00;18.80;99937.00;;;;346844;28;83358;-88
2022/05/13 00:54:13;;;;;;;;;;;18.60;80.80;18.80;99942.00;;;;345690;28;90116;-88
2022/05/13 00:54:24;;;;;;;;;;;18.70;80.90;18.80;99941.00;;;;347391;28;83407;-88
2022/05/13 00:54:41;;;;;;;;;;;18.60;80.80;18.80;99938.00;;;;346608;28;91926;-88
2022/05/13 00:54:53;;;;;;;;;;;18.60;80.80;18.80;99942.00;;;;348840;27;82414;-88
2022/05/13 00:55:08;;;;;;;;;;;18.60;80.90;18.80;99945.00;;;;344571;28;93885;-88
2022/05/13 00:55:34;;;;;;;;;;;18.60;81.00;18.80;99938.00;;;;347457;28;83353;-88
2022/05/13 00:55:46;;;;;;;;;;;18.60;80.80;18.80;99942.00;;;;346917;28;91676;-88
2022/05/13 00:55:58;;;;;;;;;;;18.70;80.60;18.80;99941.00;;;;347501;28;82386;-89
2022/05/13 00:56:10;;;;;;;;;;;18.70;80.50;18.80;99939.00;;;;348398;27;91569;-88
2022/05/13 00:56:21;;;;;;;;;;;18.60;80.80;18.80;99940.00;;;;347476;28;82477;-88
2022/05/13 00:56:34;;;;;;;;;;;18.60;80.70;18.90;99940.00;;;;346734;28;91430;-88
2022/05/13 00:56:46;;;;;;;;;;;18.70;80.80;18.80;99941.00;;;;350291;27;82492;-89
2022/05/13 00:56:58;;;;;;;;;;;18.70;80.90;18.90;99944.00;;;;345063;28;91885;-88
2022/05/13 00:57:11;;;;;;;;;;;18.70;80.90;18.70;99937.00;;;;345789;28;83859;-88
2022/05/13 00:57:23;;;;;;;;;;;18.60;80.90;18.80;99942.00;;;;342582;28;92865;-88
2022/05/13 00:57:37;;;;;;;;;;;18.60;80.80;18.70;99931.00;;;;343311;28;83330;-88
2022/05/13 00:57:49;;;;;;;;;;;18.60;80.80;18.70;99939.00;;;;346969;28;91600;-88
2022/05/13 00:58:02;;;;;;;;;;;18.60;81.00;18.80;99941.00;;;;343358;28;82386;-87
2022/05/13 00:58:17;;;;;;;;;;;18.60;80.90;18.70;99945.00;;;;345655;28;89174;-88
2022/05/13 00:58:28;;;;;;;;;;;18.60;80.90;18.80;99942.00;;;;344726;28;82399;-88
2022/05/13 00:58:42;;;;;;;;;;;18.60;81.00;18.80;99946.00;;;;345590;28;90102;-88
2022/05/13 00:58:56;;;;;;;;;;;18.70;81.20;18.70;99941.00;;;;346001;28;83507;-88
2022/05/13 00:59:07;;;;;;;;;;;18.60;81.00;18.80;99944.00;;;;344261;28;91068;-88
2022/05/13 00:59:21;;;;;;;;;;;18.60;80.90;18.70;99946.00;;;;344661;28;83379;-88
2022/05/13 00:59:34;;;;;;;;;;;18.60;81.00;18.70;99940.00;;;;345609;28;89616;-88
2022/05/13 00:59:46;;;;;;;;;;;18.60;81.00;18.70;99936.00;;;;344639;28;83391;-86
2022/05/13 00:59:58;;;;;;;;;;;18.60;81.00;18.70;99940.00;;;;346850;28;91428;-88
2022/05/13 01:00:12;;;;;;;;;;;18.60;81.00;18.70;99941.00;;;;346080;28;83369;-88
2022/05/13 01:00:24;;;;;;;;;;;18.60;80.90;18.80;99943.00;;;;345557;28;91837;-88
2022/05/13 01:00:36;;;;;;;;;;;18.60;81.00;18.80;99934.00;;;;345948;28;83333;-88
2022/05/13 01:00:48;;;;;;;;;;;18.60;81.00;18.70;99943.00;;;;346568;28;92255;-88
2022/05/13 01:01:00;;;;;;;;;;;18.60;81.00;18.70;99945.00;;;;345923;28;83409;-88
2022/05/13 01:01:12;;;;;;;;;;;18.60;81.20;18.70;99945.00;;;;342949;28;92063;-88
2022/05/13 01:01:23;;;;;;;;;;;18.60;81.10;18.70;99949.00;;;;346044;28;83435;-88
2022/05/13 01:01:35;;;;;;;;;;;18.60;81.00;18.80;99942.00;;;;346877;28;93153;-88
2022/05/13 01:01:48;;;;;;;;;;;18.60;81.10;18.80;99946.00;;;;345894;28;83421;-88
2022/05/13 01:02:00;;;;;;;;;;;18.60;81.10;18.80;99945.00;;;;348329;27;91872;-88
2022/05/13 01:02:12;;;;;;;;;;;18.60;81.20;18.80;99951.00;;;;348857;27;83420;-88
2022/05/13 01:02:23;;;;;;;;;;;18.60;81.60;18.70;99949.00;;;;345499;28;91195;-88